sensor_id;sensor_type;location;lat;lon;timestamp;temperature;humidity
25250;DHT22;13201;51.148;13.738;2022-10-16T00:01:23;16.60;99.90
25250;DHT22;13201;51.148;13.738;2022-10-16T00:03:50;16.60;99.90
25250;DHT22;13201;51.148;13.738;2022-10-16T00:06:17;16.70;99.90
25250;DHT22;13201;51.148;13.738;2022-10-16T00:08:44;16.60;99.90
25250;DHT22;13201;51.148;13.738;2022-10-16T00:11:17;16.70;99.90
25250;DHT22;13201;51.148;13.738;2022-10-16T00:13:44;16.70;99.90
25250;DHT22;13201;51.148;13.738;2022-10-16T00:16:11;16.70;99.90
25250;DHT22;13201;51.148;13.738;2022-10-16T00:18:37;16.80;99.90
25250;DHT22;13201;51.148;13.738;2022-10-16T00:21:09;16.70;99.90
25250;DHT22;13201;51.148;13.738;2022-10-16T00:23:35;16.80;99.90
25250;DHT22;13201;51.148;13.738;2022-10-16T00:26:05;16.80;99.90
25250;DHT22;13201;51.148;13.738;2022-10-16T00:28:31;16.80;99.90
25250;DHT22;13201;51.148;13.738;2022-10-16T00:30:57;16.70;99.90
25250;DHT22;13201;51.148;13.738;2022-10-16T00:33:22;16.80;99.90
25250;DHT22;13201;51.148;13.738;2022-10-16T00:35:48;16.70;99.90
25250;DHT22;13201;51.148;13.738;2022-10-16T00:38:15;16.80;99.90
25250;DHT22;13201;51.148;13.738;2022-10-16T00:40:40;16.80;99.90
25250;DHT22;13201;51.148;13.738;2022-10-16T00:43:40;16.60;99.90
25250;DHT22;13201;51.148;13.738;2022-10-16T00:46:25;16.60;99.90
25250;DHT22;13201;51.148;13.738;2022-10-16T00:51:36;16.50;99.90
25250;DHT22;13201;51.148;13.738;2022-10-16T00:54:09;16.50;99.90
25250;DHT22;13201;51.148;13.738;2022-10-16T00:56:36;16.50;99.90
25250;DHT22;13201;51.148;13.738;2022-10-16T00:59:04;16.50;99.90
25250;DHT22;13201;51.148;13.738;2022-10-16T01:01:31;16.50;99.90
25250;DHT22;13201;51.148;13.738;2022-10-16T01:03:57;16.60;99.90
25250;DHT22;13201;51.148;13.738;2022-10-16T01:31:40;15.80;99.90
25250;DHT22;13201;51.148;13.738;2022-10-16T01:34:25;15.80;99.90
25250;DHT22;13201;51.148;13.738;2022-10-16T01:36:57;15.80;99.90
25250;DHT22;13201;51.148;13.738;2022-10-16T01:39:31;16.00;99.90
25250;DHT22;13201;51.148;13.738;2022-10-16T01:42:23;16.10;99.90
25250;DHT22;13201;51.148;13.738;2022-10-16T01:44:51;16.20;99.90
25250;DHT22;13201;51.148;13.738;2022-10-16T01:47:22;16.30;99.90
25250;DHT22;13201;51.148;13.738;2022-10-16T01:49:49;16.40;99.90
25250;DHT22;13201;51.148;13.738;2022-10-16T01:52:19;16.50;99.90
25250;DHT22;13201;51.148;13.738;2022-10-16T01:54:48;16.50;99.90
25250;DHT22;13201;51.148;13.738;2022-10-16T01:57:15;16.60;99.90
25250;DHT22;13201;51.148;13.738;2022-10-16T01:59:48;16.60;99.90
25250;DHT22;13201;51.148;13.738;2022-10-16T02:02:17;16.80;99.90
25250;DHT22;13201;51.148;13.738;2022-10-16T02:04:49;16.80;99.90
25250;DHT22;13201;51.148;13.738;2022-10-16T02:07:18;16.80;99.90
25250;DHT22;13201;51.148;13.738;2022-10-16T02:09:44;16.80;99.90
25250;DHT22;13201;51.148;13.738;2022-10-16T02:12:26;16.80;99.90
25250;DHT22;13201;51.148;13.738;2022-10-16T02:14:52;16.90;99.90
25250;DHT22;13201;51.148;13.738;2022-10-16T02:17:19;16.90;99.90
25250;DHT22;13201;51.148;13.738;2022-10-16T02:19:47;16.90;99.90
25250;DHT22;13201;51.148;13.738;2022-10-16T02:22:27;16.80;99.90
25250;DHT22;13201;51.148;13.738;2022-10-16T02:25:04;16.80;99.90
25250;DHT22;13201;51.148;13.738;2022-10-16T02:27:58;16.80;99.90
25250;DHT22;13201;51.148;13.738;2022-10-16T02:30:36;16.80;99.90
25250;DHT22;13201;51.148;13.738;2022-10-16T02:33:09;16.90;99.90
25250;DHT22;13201;51.148;13.738;2022-10-16T02:35:36;16.90;99.90
25250;DHT22;13201;51.148;13.738;2022-10-16T02:38:03;16.90;99.90
25250;DHT22;13201;51.148;13.738;2022-10-16T02:40:29;16.90;99.90
25250;DHT22;13201;51.148;13.738;2022-10-16T02:42:55;16.90;99.90
25250;DHT22;13201;51.148;13.738;2022-10-16T02:45:22;16.90;99.90
25250;DHT22;13201;51.148;13.738;2022-10-16T02:47:48;16.90;99.90
25250;DHT22;13201;51.148;13.738;2022-10-16T02:50:14;17.00;99.90
25250;DHT22;13201;51.148;13.738;2022-10-16T02:52:40;17.00;99.90
25250;DHT22;13201;51.148;13.738;2022-10-16T02:55:06;16.80;99.90
25250;DHT22;13201;51.148;13.738;2022-10-16T02:57:32;16.80;99.90
25250;DHT22;13201;51.148;13.738;2022-10-16T02:59:58;16.90;99.90
25250;DHT22;13201;51.148;13.738;2022-10-16T03:02:24;16.90;99.90
25250;DHT22;13201;51.148;13.738;2022-10-16T03:04:49;16.90;99.90
25250;DHT22;13201;51.148;13.738;2022-10-16T03:07:15;17.00;99.90
25250;DHT22;13201;51.148;13.738;2022-10-16T03:09:40;17.00;99.90
25250;DHT22;13201;51.148;13.738;2022-10-16T03:12:06;16.90;99.90
25250;DHT22;13201;51.148;13.738;2022-10-16T03:14:33;16.90;99.90
25250;DHT22;13201;51.148;13.738;2022-10-16T03:16:58;17.00;99.90
25250;DHT22;13201;51.148;13.738;2022-10-16T03:19:24;17.00;99.90
25250;DHT22;13201;51.148;13.738;2022-10-16T03:21:50;17.10;99.90
25250;DHT22;13201;51.148;13.738;2022-10-16T03:24:15;17.10;99.90
25250;DHT22;13201;51.148;13.738;2022-10-16T03:26:41;17.10;99.90
25250;DHT22;13201;51.148;13.738;2022-10-16T03:29:07;17.10;99.90
25250;DHT22;13201;51.148;13.738;2022-10-16T03:31:32;17.20;99.90
25250;DHT22;13201;51.148;13.738;2022-10-16T03:33:58;17.10;99.90
25250;DHT22;13201;51.148;13.738;2022-10-16T03:36:24;17.10;99.90
25250;DHT22;13201;51.148;13.738;2022-10-16T03:38:49;17.10;99.90
25250;DHT22;13201;51.148;13.738;2022-10-16T03:41:15;17.10;99.90
25250;DHT22;13201;51.148;13.738;2022-10-16T03:43:41;17.10;99.90
25250;DHT22;13201;51.148;13.738;2022-10-16T03:46:06;16.90;99.90
25250;DHT22;13201;51.148;13.738;2022-10-16T03:48:32;16.80;99.90
25250;DHT22;13201;51.148;13.738;2022-10-16T03:50:58;16.80;99.90
25250;DHT22;13201;51.148;13.738;2022-10-16T03:53:24;16.80;99.90
25250;DHT22;13201;51.148;13.738;2022-10-16T03:55:50;16.80;99.90
25250;DHT22;13201;51.148;13.738;2022-10-16T03:58:15;16.80;99.90
25250;DHT22;13201;51.148;13.738;2022-10-16T04:00:42;16.80;99.90
25250;DHT22;13201;51.148;13.738;2022-10-16T04:03:08;16.80;99.90
25250;DHT22;13201;51.148;13.738;2022-10-16T04:05:34;16.80;99.90
25250;DHT22;13201;51.148;13.738;2022-10-16T04:07:59;16.80;99.90
25250;DHT22;13201;51.148;13.738;2022-10-16T04:10:25;16.80;99.90
25250;DHT22;13201;51.148;13.738;2022-10-16T04:12:50;16.80;99.90
25250;DHT22;13201;51.148;13.738;2022-10-16T04:15:16;16.70;99.90
25250;DHT22;13201;51.148;13.738;2022-10-16T04:17:42;16.80;99.90
25250;DHT22;13201;51.148;13.738;2022-10-16T04:20:08;16.60;99.90
25250;DHT22;13201;51.148;13.738;2022-10-16T04:22:33;16.60;99.90
25250;DHT22;13201;51.148;13.738;2022-10-16T04:24:59;16.50;99.90
25250;DHT22;13201;51.148;13.738;2022-10-16T04:27:25;16.50;99.90
25250;DHT22;13201;51.148;13.738;2022-10-16T04:29:50;16.60;99.90
25250;DHT22;13201;51.148;13.738;2022-10-16T04:32:16;16.70;99.90
25250;DHT22;13201;51.148;13.738;2022-10-16T04:34:42;16.60;99.90
25250;DHT22;13201;51.148;13.738;2022-10-16T04:37:07;16.60;99.90
25250;DHT22;13201;51.148;13.738;2022-10-16T04:39:33;16.60;99.90
25250;DHT22;13201;51.148;13.738;2022-10-16T04:41:58;16.60;99.90
25250;DHT22;13201;51.148;13.738;2022-10-16T04:44:24;16.60;99.90
25250;DHT22;13201;51.148;13.738;2022-10-16T04:46:50;16.70;99.90
25250;DHT22;13201;51.148;13.738;2022-10-16T04:49:16;16.80;99.90
25250;DHT22;13201;51.148;13.738;2022-10-16T04:51:42;16.80;99.90
25250;DHT22;13201;51.148;13.738;2022-10-16T04:54:08;16.90;99.90
25250;DHT22;13201;51.148;13.738;2022-10-16T04:56:34;16.80;99.90
25250;DHT22;13201;51.148;13.738;2022-10-16T04:59:05;16.70;99.90
25250;DHT22;13201;51.148;13.738;2022-10-16T05:01:31;16.70;99.90
25250;DHT22;13201;51.148;13.738;2022-10-16T05:03:57;16.60;99.90
25250;DHT22;13201;51.148;13.738;2022-10-16T05:06:22;16.70;99.90
25250;DHT22;13201;51.148;13.738;2022-10-16T05:08:48;16.60;99.90
25250;DHT22;13201;51.148;13.738;2022-10-16T05:11:13;16.70;99.90
25250;DHT22;13201;51.148;13.738;2022-10-16T05:13:39;16.70;99.90
25250;DHT22;13201;51.148;13.738;2022-10-16T05:16:05;16.70;99.90
25250;DHT22;13201;51.148;13.738;2022-10-16T05:18:30;16.60;99.90
25250;DHT22;13201;51.148;13.738;2022-10-16T05:20:56;16.60;99.90
25250;DHT22;13201;51.148;13.738;2022-10-16T05:23:22;16.60;99.90
25250;DHT22;13201;51.148;13.738;2022-10-16T05:25:55;16.70;99.90
25250;DHT22;13201;51.148;13.738;2022-10-16T05:28:24;16.70;99.90
25250;DHT22;13201;51.148;13.738;2022-10-16T05:30:50;16.70;99.90
25250;DHT22;13201;51.148;13.738;2022-10-16T05:33:15;16.70;99.90
25250;DHT22;13201;51.148;13.738;2022-10-16T05:35:41;16.60;99.90
25250;DHT22;13201;51.148;13.738;2022-10-16T05:38:07;16.50;99.90
25250;DHT22;13201;51.148;13.738;2022-10-16T05:40:33;16.50;99.90
25250;DHT22;13201;51.148;13.738;2022-10-16T05:42:58;16.40;99.90
25250;DHT22;13201;51.148;13.738;2022-10-16T05:45:24;16.50;99.90
25250;DHT22;13201;51.148;13.738;2022-10-16T05:47:49;16.50;99.90
25250;DHT22;13201;51.148;13.738;2022-10-16T05:50:15;16.40;99.90
25250;DHT22;13201;51.148;13.738;2022-10-16T05:52:41;16.50;99.90
25250;DHT22;13201;51.148;13.738;2022-10-16T05:55:07;16.50;99.90
25250;DHT22;13201;51.148;13.738;2022-10-16T05:57:32;16.50;99.90
25250;DHT22;13201;51.148;13.738;2022-10-16T05:59:58;16.50;99.90
25250;DHT22;13201;51.148;13.738;2022-10-16T06:02:24;16.50;99.90
25250;DHT22;13201;51.148;13.738;2022-10-16T06:04:51;16.50;99.90
25250;DHT22;13201;51.148;13.738;2022-10-16T06:07:19;16.50;99.90
25250;DHT22;13201;51.148;13.738;2022-10-16T06:09:48;16.50;99.90
25250;DHT22;13201;51.148;13.738;2022-10-16T06:12:14;16.40;99.90
25250;DHT22;13201;51.148;13.738;2022-10-16T06:14:39;16.50;99.90
25250;DHT22;13201;51.148;13.738;2022-10-16T06:17:05;16.60;99.90
25250;DHT22;13201;51.148;13.738;2022-10-16T06:19:30;16.70;99.90
25250;DHT22;13201;51.148;13.738;2022-10-16T06:21:57;16.80;99.90
25250;DHT22;13201;51.148;13.738;2022-10-16T06:24:24;16.80;99.90
25250;DHT22;13201;51.148;13.738;2022-10-16T06:26:49;16.90;99.90
25250;DHT22;13201;51.148;13.738;2022-10-16T06:29:15;16.90;99.90
25250;DHT22;13201;51.148;13.738;2022-10-16T06:31:41;16.90;99.90
25250;DHT22;13201;51.148;13.738;2022-10-16T06:34:09;16.90;99.90
25250;DHT22;13201;51.148;13.738;2022-10-16T06:36:36;17.00;99.90
25250;DHT22;13201;51.148;13.738;2022-10-16T06:39:02;16.90;99.90
25250;DHT22;13201;51.148;13.738;2022-10-16T06:41:28;16.90;99.90
25250;DHT22;13201;51.148;13.738;2022-10-16T06:43:53;16.90;99.90
25250;DHT22;13201;51.148;13.738;2022-10-16T06:46:21;17.00;99.90
25250;DHT22;13201;51.148;13.738;2022-10-16T06:48:47;17.00;99.90
25250;DHT22;13201;51.148;13.738;2022-10-16T06:51:21;17.10;99.90
25250;DHT22;13201;51.148;13.738;2022-10-16T06:53:49;17.10;99.90
25250;DHT22;13201;51.148;13.738;2022-10-16T06:56:16;17.30;99.90
25250;DHT22;13201;51.148;13.738;2022-10-16T06:58:42;17.30;99.90
25250;DHT22;13201;51.148;13.738;2022-10-16T07:01:09;17.40;99.90
25250;DHT22;13201;51.148;13.738;2022-10-16T07:03:40;17.50;99.90
25250;DHT22;13201;51.148;13.738;2022-10-16T07:06:07;17.50;99.90
25250;DHT22;13201;51.148;13.738;2022-10-16T07:08:34;17.50;99.90
25250;DHT22;13201;51.148;13.738;2022-10-16T07:11:11;17.60;99.90
25250;DHT22;13201;51.148;13.738;2022-10-16T07:13:38;17.60;99.90
25250;DHT22;13201;51.148;13.738;2022-10-16T07:18:33;17.70;99.90
25250;DHT22;13201;51.148;13.738;2022-10-16T07:21:09;17.70;99.90
25250;DHT22;13201;51.148;13.738;2022-10-16T07:23:36;17.70;99.90
25250;DHT22;13201;51.148;13.738;2022-10-16T07:26:01;17.70;99.90
25250;DHT22;13201;51.148;13.738;2022-10-16T07:28:27;17.80;99.90
25250;DHT22;13201;51.148;13.738;2022-10-16T07:30:53;17.70;99.90
25250;DHT22;13201;51.148;13.738;2022-10-16T07:33:19;17.70;99.90
25250;DHT22;13201;51.148;13.738;2022-10-16T07:35:52;17.80;99.90
25250;DHT22;13201;51.148;13.738;2022-10-16T07:38:18;17.90;99.90
25250;DHT22;13201;51.148;13.738;2022-10-16T07:40:44;17.90;99.90
25250;DHT22;13201;51.148;13.738;2022-10-16T07:43:11;17.80;99.90
25250;DHT22;13201;51.148;13.738;2022-10-16T07:45:37;17.80;99.90
25250;DHT22;13201;51.148;13.738;2022-10-16T07:48:03;17.90;99.90
25250;DHT22;13201;51.148;13.738;2022-10-16T07:50:28;17.90;99.90
25250;DHT22;13201;51.148;13.738;2022-10-16T07:52:54;17.90;99.90
25250;DHT22;13201;51.148;13.738;2022-10-16T07:55:19;17.90;99.90
25250;DHT22;13201;51.148;13.738;2022-10-16T07:57:45;18.00;99.90
25250;DHT22;13201;51.148;13.738;2022-10-16T08:00:11;18.00;99.90
25250;DHT22;13201;51.148;13.738;2022-10-16T08:02:39;18.00;99.90
25250;DHT22;13201;51.148;13.738;2022-10-16T08:05:06;18.00;99.90
25250;DHT22;13201;51.148;13.738;2022-10-16T08:07:32;18.10;99.90
25250;DHT22;13201;51.148;13.738;2022-10-16T08:09:57;18.30;99.90
25250;DHT22;13201;51.148;13.738;2022-10-16T08:12:25;18.30;99.90
25250;DHT22;13201;51.148;13.738;2022-10-16T08:14:50;18.30;99.90
25250;DHT22;13201;51.148;13.738;2022-10-16T08:17:16;18.30;99.90
25250;DHT22;13201;51.148;13.738;2022-10-16T08:19:46;18.20;99.90
25250;DHT22;13201;51.148;13.738;2022-10-16T08:22:13;18.40;99.90
25250;DHT22;13201;51.148;13.738;2022-10-16T08:24:38;18.40;99.90
25250;DHT22;13201;51.148;13.738;2022-10-16T08:27:04;18.50;99.90
25250;DHT22;13201;51.148;13.738;2022-10-16T08:29:30;18.60;99.90
25250;DHT22;13201;51.148;13.738;2022-10-16T08:31:55;18.80;99.90
25250;DHT22;13201;51.148;13.738;2022-10-16T08:34:21;18.90;99.90
25250;DHT22;13201;51.148;13.738;2022-10-16T08:36:46;18.90;99.90
25250;DHT22;13201;51.148;13.738;2022-10-16T08:39:12;19.00;99.90
25250;DHT22;13201;51.148;13.738;2022-10-16T08:42:15;19.10;99.90
25250;DHT22;13201;51.148;13.738;2022-10-16T08:45:26;19.20;99.90
25250;DHT22;13201;51.148;13.738;2022-10-16T08:50:39;19.40;99.90
25250;DHT22;13201;51.148;13.738;2022-10-16T08:53:06;19.30;99.90
25250;DHT22;13201;51.148;13.738;2022-10-16T08:55:49;19.50;99.90
25250;DHT22;13201;51.148;13.738;2022-10-16T08:58:18;19.60;99.90
25250;DHT22;13201;51.148;13.738;2022-10-16T09:00:54;19.50;99.90
25250;DHT22;13201;51.148;13.738;2022-10-16T09:03:24;19.50;99.90
25250;DHT22;13201;51.148;13.738;2022-10-16T09:16:43;19.90;99.90
25250;DHT22;13201;51.148;13.738;2022-10-16T09:19:14;20.00;99.90
25250;DHT22;13201;51.148;13.738;2022-10-16T09:21:44;20.00;99.90
25250;DHT22;13201;51.148;13.738;2022-10-16T09:24:17;20.10;99.90
25250;DHT22;13201;51.148;13.738;2022-10-16T09:26:45;20.10;99.90
25250;DHT22;13201;51.148;13.738;2022-10-16T09:29:16;20.30;99.90
25250;DHT22;13201;51.148;13.738;2022-10-16T09:31:43;20.40;99.90
25250;DHT22;13201;51.148;13.738;2022-10-16T09:34:33;20.40;99.90
25250;DHT22;13201;51.148;13.738;2022-10-16T09:37:04;20.40;99.90
25250;DHT22;13201;51.148;13.738;2022-10-16T09:39:30;20.50;99.90
25250;DHT22;13201;51.148;13.738;2022-10-16T09:42:13;20.70;99.90
25250;DHT22;13201;51.148;13.738;2022-10-16T09:44:39;20.80;99.90
25250;DHT22;13201;51.148;13.738;2022-10-16T09:47:15;20.90;99.90
25250;DHT22;13201;51.148;13.738;2022-10-16T09:49:57;20.90;99.90
25250;DHT22;13201;51.148;13.738;2022-10-16T09:52:24;21.00;99.90
25250;DHT22;13201;51.148;13.738;2022-10-16T09:54:54;21.10;99.90
25250;DHT22;13201;51.148;13.738;2022-10-16T09:57:21;21.00;99.90
25250;DHT22;13201;51.148;13.738;2022-10-16T09:59:54;21.00;99.90
25250;DHT22;13201;51.148;13.738;2022-10-16T10:02:35;21.40;99.90
25250;DHT22;13201;51.148;13.738;2022-10-16T10:05:02;21.40;99.90
25250;DHT22;13201;51.148;13.738;2022-10-16T10:07:35;21.50;99.90
25250;DHT22;13201;51.148;13.738;2022-10-16T10:10:18;21.60;99.90
25250;DHT22;13201;51.148;13.738;2022-10-16T10:12:45;21.40;99.90
25250;DHT22;13201;51.148;13.738;2022-10-16T10:15:12;21.20;99.90
25250;DHT22;13201;51.148;13.738;2022-10-16T10:17:56;21.30;99.90
25250;DHT22;13201;51.148;13.738;2022-10-16T10:20:28;21.50;99.90
25250;DHT22;13201;51.148;13.738;2022-10-16T10:22:55;21.60;99.90
25250;DHT22;13201;51.148;13.738;2022-10-16T10:30:50;21.80;99.90
25250;DHT22;13201;51.148;13.738;2022-10-16T10:38:30;21.80;99.90
25250;DHT22;13201;51.148;13.738;2022-10-16T10:41:42;21.60;99.90
25250;DHT22;13201;51.148;13.738;2022-10-16T10:46:35;21.90;99.90
25250;DHT22;13201;51.148;13.738;2022-10-16T10:49:19;21.90;99.90
25250;DHT22;13201;51.148;13.738;2022-10-16T10:52:05;21.80;99.90
25250;DHT22;13201;51.148;13.738;2022-10-16T11:05:54;21.70;99.90
25250;DHT22;13201;51.148;13.738;2022-10-16T11:08:28;21.70;99.90
25250;DHT22;13201;51.148;13.738;2022-10-16T11:11:05;21.70;99.90
25250;DHT22;13201;51.148;13.738;2022-10-16T11:13:40;21.60;99.90
25250;DHT22;13201;51.148;13.738;2022-10-16T11:16:17;21.70;99.90
25250;DHT22;13201;51.148;13.738;2022-10-16T11:18:59;21.90;99.90
25250;DHT22;13201;51.148;13.738;2022-10-16T11:21:29;22.30;99.90
25250;DHT22;13201;51.148;13.738;2022-10-16T11:24:16;22.40;99.90
25250;DHT22;13201;51.148;13.738;2022-10-16T11:26:46;22.00;99.90
25250;DHT22;13201;51.148;13.738;2022-10-16T11:29:19;21.90;99.90
25250;DHT22;13201;51.148;13.738;2022-10-16T11:31:50;21.80;99.90
25250;DHT22;13201;51.148;13.738;2022-10-16T11:34:25;22.00;99.90
25250;DHT22;13201;51.148;13.738;2022-10-16T11:39:35;22.00;99.90
25250;DHT22;13201;51.148;13.738;2022-10-16T11:42:11;22.30;99.90
25250;DHT22;13201;51.148;13.738;2022-10-16T11:45:03;22.40;99.90
25250;DHT22;13201;51.148;13.738;2022-10-16T11:47:57;22.20;99.90
25250;DHT22;13201;51.148;13.738;2022-10-16T11:50:46;22.40;99.90
25250;DHT22;13201;51.148;13.738;2022-10-16T11:56:06;22.80;99.90
25250;DHT22;13201;51.148;13.738;2022-10-16T12:01:38;23.20;99.90
25250;DHT22;13201;51.148;13.738;2022-10-16T12:09:29;22.70;99.90
25250;DHT22;13201;51.148;13.738;2022-10-16T12:11:55;22.70;99.90
25250;DHT22;13201;51.148;13.738;2022-10-16T12:14:34;22.60;99.90
25250;DHT22;13201;51.148;13.738;2022-10-16T12:17:03;22.60;99.90
25250;DHT22;13201;51.148;13.738;2022-10-16T12:19:32;22.40;99.90
25250;DHT22;13201;51.148;13.738;2022-10-16T12:22:00;22.50;99.90
25250;DHT22;13201;51.148;13.738;2022-10-16T12:24:35;22.80;99.90
25250;DHT22;13201;51.148;13.738;2022-10-16T12:27:03;22.50;99.90
25250;DHT22;13201;51.148;13.738;2022-10-16T12:29:40;22.40;99.90
25250;DHT22;13201;51.148;13.738;2022-10-16T12:32:46;22.40;99.90
25250;DHT22;13201;51.148;13.738;2022-10-16T12:35:26;22.20;99.90
25250;DHT22;13201;51.148;13.738;2022-10-16T12:37:53;22.20;99.90
25250;DHT22;13201;51.148;13.738;2022-10-16T12:40:29;22.30;99.90
25250;DHT22;13201;51.148;13.738;2022-10-16T12:42:56;22.40;99.90
25250;DHT22;13201;51.148;13.738;2022-10-16T12:45:33;22.20;99.90
25250;DHT22;13201;51.148;13.738;2022-10-16T12:48:01;22.20;99.90
25250;DHT22;13201;51.148;13.738;2022-10-16T12:50:31;22.10;99.90
25250;DHT22;13201;51.148;13.738;2022-10-16T12:52:58;22.20;99.90
25250;DHT22;13201;51.148;13.738;2022-10-16T12:55:24;22.30;99.90
25250;DHT22;13201;51.148;13.738;2022-10-16T13:00:55;22.30;99.90
25250;DHT22;13201;51.148;13.738;2022-10-16T13:12:15;22.70;99.90
25250;DHT22;13201;51.148;13.738;2022-10-16T13:28:38;22.20;99.90
25250;DHT22;13201;51.148;13.738;2022-10-16T13:31:04;22.30;99.90
25250;DHT22;13201;51.148;13.738;2022-10-16T13:33:39;22.40;99.90
25250;DHT22;13201;51.148;13.738;2022-10-16T13:36:06;22.30;99.90
25250;DHT22;13201;51.148;13.738;2022-10-16T13:38:34;22.20;99.90
25250;DHT22;13201;51.148;13.738;2022-10-16T13:41:11;22.20;99.90
25250;DHT22;13201;51.148;13.738;2022-10-16T13:43:50;22.20;99.90
25250;DHT22;13201;51.148;13.738;2022-10-16T13:46:18;22.20;99.90
25250;DHT22;13201;51.148;13.738;2022-10-16T13:48:55;22.30;99.90
25250;DHT22;13201;51.148;13.738;2022-10-16T13:51:21;22.30;99.90
25250;DHT22;13201;51.148;13.738;2022-10-16T13:53:47;22.30;99.90
25250;DHT22;13201;51.148;13.738;2022-10-16T13:56:15;22.50;99.90
25250;DHT22;13201;51.148;13.738;2022-10-16T13:58:41;22.40;99.90
25250;DHT22;13201;51.148;13.738;2022-10-16T14:04:05;22.50;99.90
25250;DHT22;13201;51.148;13.738;2022-10-16T14:06:33;22.40;99.90
25250;DHT22;13201;51.148;13.738;2022-10-16T14:09:05;22.50;99.90
25250;DHT22;13201;51.148;13.738;2022-10-16T14:11:33;22.60;99.90
25250;DHT22;13201;51.148;13.738;2022-10-16T14:13:59;22.70;99.90
25250;DHT22;13201;51.148;13.738;2022-10-16T14:16:29;22.70;99.90
25250;DHT22;13201;51.148;13.738;2022-10-16T14:18:58;22.50;99.90
25250;DHT22;13201;51.148;13.738;2022-10-16T14:21:25;22.70;99.90
25250;DHT22;13201;51.148;13.738;2022-10-16T14:23:52;22.60;99.90
25250;DHT22;13201;51.148;13.738;2022-10-16T14:26:20;22.60;99.90
25250;DHT22;13201;51.148;13.738;2022-10-16T14:28:47;22.40;99.90
25250;DHT22;13201;51.148;13.738;2022-10-16T14:33:50;22.70;99.90
25250;DHT22;13201;51.148;13.738;2022-10-16T14:36:16;22.70;99.90
25250;DHT22;13201;51.148;13.738;2022-10-16T14:39:14;22.80;99.90
25250;DHT22;13201;51.148;13.738;2022-10-16T14:41:46;22.80;99.90
25250;DHT22;13201;51.148;13.738;2022-10-16T14:44:12;23.00;99.90
25250;DHT22;13201;51.148;13.738;2022-10-16T14:46:40;23.20;99.90
25250;DHT22;13201;51.148;13.738;2022-10-16T14:51:36;23.10;99.90
25250;DHT22;13201;51.148;13.738;2022-10-16T14:54:02;23.10;99.90
25250;DHT22;13201;51.148;13.738;2022-10-16T14:59:19;23.00;99.90
25250;DHT22;13201;51.148;13.738;2022-10-16T15:01:45;22.90;99.90
25250;DHT22;13201;51.148;13.738;2022-10-16T15:04:12;22.90;99.90
25250;DHT22;13201;51.148;13.738;2022-10-16T15:06:38;22.90;99.90
25250;DHT22;13201;51.148;13.738;2022-10-16T15:09:04;22.80;99.90
25250;DHT22;13201;51.148;13.738;2022-10-16T15:11:31;22.80;99.90
25250;DHT22;13201;51.148;13.738;2022-10-16T15:13:57;23.00;99.90
25250;DHT22;13201;51.148;13.738;2022-10-16T15:16:24;23.20;99.90
25250;DHT22;13201;51.148;13.738;2022-10-16T15:18:49;23.30;99.90
25250;DHT22;13201;51.148;13.738;2022-10-16T15:21:27;23.30;99.90
25250;DHT22;13201;51.148;13.738;2022-10-16T15:23:53;23.40;99.90
25250;DHT22;13201;51.148;13.738;2022-10-16T15:26:18;23.30;99.90
25250;DHT22;13201;51.148;13.738;2022-10-16T15:28:44;23.30;99.90
25250;DHT22;13201;51.148;13.738;2022-10-16T15:31:10;23.20;99.90
25250;DHT22;13201;51.148;13.738;2022-10-16T15:33:35;22.90;99.90
25250;DHT22;13201;51.148;13.738;2022-10-16T15:36:02;22.60;99.90
25250;DHT22;13201;51.148;13.738;2022-10-16T15:38:28;22.70;99.90
25250;DHT22;13201;51.148;13.738;2022-10-16T15:40:55;22.70;99.90
25250;DHT22;13201;51.148;13.738;2022-10-16T15:43:21;22.40;99.90
25250;DHT22;13201;51.148;13.738;2022-10-16T15:46:02;22.40;99.90
25250;DHT22;13201;51.148;13.738;2022-10-16T15:48:30;22.20;99.90
25250;DHT22;13201;51.148;13.738;2022-10-16T15:50:55;22.10;99.90
25250;DHT22;13201;51.148;13.738;2022-10-16T15:53:21;21.90;99.90
25250;DHT22;13201;51.148;13.738;2022-10-16T15:55:47;21.80;99.90
25250;DHT22;13201;51.148;13.738;2022-10-16T15:58:12;21.70;99.90
25250;DHT22;13201;51.148;13.738;2022-10-16T16:00:38;21.50;99.90
25250;DHT22;13201;51.148;13.738;2022-10-16T16:03:04;21.30;99.90
25250;DHT22;13201;51.148;13.738;2022-10-16T16:05:30;21.10;99.90
25250;DHT22;13201;51.148;13.738;2022-10-16T16:07:56;21.00;99.90
25250;DHT22;13201;51.148;13.738;2022-10-16T16:10:22;20.80;99.90
25250;DHT22;13201;51.148;13.738;2022-10-16T16:12:48;20.70;99.90
25250;DHT22;13201;51.148;13.738;2022-10-16T16:15:18;20.40;99.90
25250;DHT22;13201;51.148;13.738;2022-10-16T16:17:43;20.60;99.90
25250;DHT22;13201;51.148;13.738;2022-10-16T16:20:10;20.50;99.90
25250;DHT22;13201;51.148;13.738;2022-10-16T16:22:35;20.30;99.90
25250;DHT22;13201;51.148;13.738;2022-10-16T16:25:01;20.30;99.90
25250;DHT22;13201;51.148;13.738;2022-10-16T16:27:27;20.10;99.90
25250;DHT22;13201;51.148;13.738;2022-10-16T16:29:55;19.90;99.90
25250;DHT22;13201;51.148;13.738;2022-10-16T16:32:21;19.90;99.90
25250;DHT22;13201;51.148;13.738;2022-10-16T16:34:46;19.90;99.90
25250;DHT22;13201;51.148;13.738;2022-10-16T16:37:12;19.80;99.90
25250;DHT22;13201;51.148;13.738;2022-10-16T16:39:38;19.80;99.90
25250;DHT22;13201;51.148;13.738;2022-10-16T16:42:04;19.60;99.90
25250;DHT22;13201;51.148;13.738;2022-10-16T16:44:31;19.60;99.90
25250;DHT22;13201;51.148;13.738;2022-10-16T16:46:57;19.60;99.90
25250;DHT22;13201;51.148;13.738;2022-10-16T16:49:23;19.40;99.90
25250;DHT22;13201;51.148;13.738;2022-10-16T16:51:49;19.20;99.90
25250;DHT22;13201;51.148;13.738;2022-10-16T16:54:14;19.20;99.90
25250;DHT22;13201;51.148;13.738;2022-10-16T16:56:41;18.90;99.90
25250;DHT22;13201;51.148;13.738;2022-10-16T16:59:13;19.00;99.90
25250;DHT22;13201;51.148;13.738;2022-10-16T17:01:39;19.10;99.90
25250;DHT22;13201;51.148;13.738;2022-10-16T17:04:05;18.90;99.90
25250;DHT22;13201;51.148;13.738;2022-10-16T17:06:31;18.80;99.90
25250;DHT22;13201;51.148;13.738;2022-10-16T17:08:57;18.70;99.90
25250;DHT22;13201;51.148;13.738;2022-10-16T17:11:26;18.80;99.90
25250;DHT22;13201;51.148;13.738;2022-10-16T17:13:53;18.40;99.90
25250;DHT22;13201;51.148;13.738;2022-10-16T17:16:20;18.50;99.90
25250;DHT22;13201;51.148;13.738;2022-10-16T17:18:46;18.60;99.90
25250;DHT22;13201;51.148;13.738;2022-10-16T17:21:12;18.60;99.90
25250;DHT22;13201;51.148;13.738;2022-10-16T17:23:38;18.50;99.90
25250;DHT22;13201;51.148;13.738;2022-10-16T17:26:13;18.50;99.90